Time;durP1;ratioP1;P1;durP2;ratioP2;P2;SDS_P1;SDS_P2;PMS_P1;PMS_P2;Temp;Humidity;BMP_temperature;BMP_pressure;BME280_temperature;BME280_humidity;BME280_pressure;Samples;Min_cycle;Max_cycle;Signal;HPM_P1;HPM_P2
2023/03/05 00:02:16;;;;;;;41.13;22.23;;;;;;;1.12;100.00;96551.97;5010867;28;103044;-66
2023/03/05 00:04:44;;;;;;;37.10;21.60;;;;;;;1.08;100.00;96545.50;5009287;28;105413;-66
2023/03/05 00:07:13;;;;;;;40.40;23.33;;;;;;;1.00;100.00;96535.16;5011104;28;101721;-66
2023/03/05 00:09:41;;;;;;;42.33;22.93;;;;;;;0.93;100.00;96547.38;5010823;28;102814;-66
2023/03/05 00:12:08;;;;;;;38.93;22.60;;;;;;;1.06;100.00;96537.03;5009117;28;105144;-67
2023/03/05 00:14:36;;;;;;;37.17;21.87;;;;;;;1.08;100.00;96540.25;5009865;28;102046;-66
2023/03/05 00:17:03;;;;;;;45.17;23.20;;;;;;;1.00;100.00;96535.94;5009665;28;105661;-66
2023/03/05 00:19:32;;;;;;;43.60;23.80;;;;;;;0.96;100.00;96532.09;5009820;28;105776;-66
2023/03/05 00:22:00;;;;;;;42.53;23.07;;;;;;;1.03;100.00;96540.00;5012923;28;101851;-67
2023/03/05 00:24:27;;;;;;;39.00;22.87;;;;;;;0.90;100.00;96524.19;5009277;28;105483;-67
2023/03/05 00:26:54;;;;;;;41.93;22.90;;;;;;;0.78;100.00;96521.25;5009871;28;101810;-67
2023/03/05 00:29:23;;;;;;;44.57;23.73;;;;;;;0.82;100.00;96519.88;5009937;28;104934;-66
2023/03/05 00:31:51;;;;;;;40.77;22.00;;;;;;;0.81;100.00;96520.06;5010075;28;102853;-66
2023/03/05 00:34:19;;;;;;;36.17;22.43;;;;;;;0.86;100.00;96518.50;5009937;28;102011;-66
2023/03/05 00:36:50;;;;;;;34.50;21.87;;;;;;;0.77;100.00;96506.53;5009906;28;104290;-67
2023/03/05 00:39:19;;;;;;;42.77;24.00;;;;;;;0.76;100.00;96509.34;5008903;28;105749;-67
2023/03/05 00:41:48;;;;;;;43.63;23.27;;;;;;;0.84;100.00;96496.13;5012669;28;101931;-67
2023/03/05 00:44:16;;;;;;;39.53;23.83;;;;;;;0.91;100.00;96508.28;5042221;27;105671;-67
2023/03/05 00:46:44;;;;;;;41.47;23.63;;;;;;;0.87;100.00;96500.97;5009078;28;102289;-66
2023/03/05 00:49:11;;;;;;;38.80;22.87;;;;;;;0.77;100.00;96495.28;5009882;28;105691;-67
2023/03/05 00:51:38;;;;;;;38.27;22.63;;;;;;;0.76;100.00;96493.63;5008778;28;106074;-67
2023/03/05 00:54:08;;;;;;;39.90;23.83;;;;;;;0.77;100.00;96490.03;5009225;28;102155;-67
2023/03/05 00:56:35;;;;;;;45.27;23.57;;;;;;;0.80;100.00;96480.00;5009599;28;105591;-67
2023/03/05 00:59:03;;;;;;;42.83;23.93;;;;;;;0.78;100.00;96492.44;5009493;28;105563;-67
2023/03/05 01:01:30;;;;;;;38.67;22.27;;;;;;;0.87;100.00;96485.28;5008673;28;101964;-67
2023/03/05 01:03:59;;;;;;;41.07;24.00;;;;;;;0.89;100.00;96485.91;5013830;28;102902;-67
2023/03/05 01:06:28;;;;;;;42.80;23.97;;;;;;;0.90;100.00;96484.91;5008703;28;101859;-67
2023/03/05 01:08:58;;;;;;;40.63;23.10;;;;;;;0.87;100.00;96480.03;5009564;28;105332;-67
2023/03/05 01:11:26;;;;;;;41.43;23.50;;;;;;;0.92;100.00;96475.06;5007834;28;105644;-67
2023/03/05 01:13:54;;;;;;;39.03;22.90;;;;;;;1.04;100.00;96473.56;5009361;28;101901;-67
2023/03/05 01:16:23;;;;;;;39.63;25.17;;;;;;;1.18;100.00;96472.66;5009797;28;105470;-67
2023/03/05 01:18:50;;;;;;;42.17;23.40;;;;;;;1.02;100.00;96463.28;5010044;28;103110;-67
2023/03/05 01:21:18;;;;;;;40.87;23.53;;;;;;;1.08;100.00;96459.91;5008510;28;101962;-67
2023/03/05 01:23:45;;;;;;;39.27;22.77;;;;;;;1.02;100.00;96462.47;5008693;28;105457;-67
2023/03/05 01:26:12;;;;;;;42.23;22.97;;;;;;;1.16;100.00;96459.75;5012348;28;105590;-67
2023/03/05 01:28:41;;;;;;;36.57;21.57;;;;;;;1.26;100.00;96467.28;5009701;28;105731;-67
2023/03/05 01:31:09;;;;;;;45.03;23.83;;;;;;;1.27;100.00;96461.03;5008519;28;104387;-67
2023/03/05 01:33:38;;;;;;;40.30;23.77;;;;;;;1.30;100.00;96460.66;5008385;28;101926;-67
2023/03/05 01:36:10;;;;;;;40.70;23.87;;;;;;;1.35;100.00;96455.66;5008724;28;105019;-67
2023/03/05 01:38:38;;;;;;;39.97;23.37;;;;;;;1.37;100.00;96456.28;5010154;28;102742;-67
2023/03/05 01:41:05;;;;;;;38.97;24.90;;;;;;;1.37;100.00;96451.03;5007447;28;101901;-67
2023/03/05 01:43:33;;;;;;;42.37;24.73;;;;;;;1.34;100.00;96441.75;5007009;28;105716;-67
2023/03/05 01:46:26;;;;;;;44.00;24.43;;;;;;;1.26;100.00;96443.72;5008245;28;104430;-67
2023/03/05 01:48:59;;;;;;;38.60;23.93;;;;;;;1.31;100.00;96439.50;5010636;28;101854;-67
2023/03/05 01:51:29;;;;;;;39.17;23.97;;;;;;;1.38;100.00;96442.97;5006977;28;105543;-67
2023/03/05 01:54:00;;;;;;;44.50;25.37;;;;;;;1.36;100.00;96429.25;5008488;28;101731;-67
2023/03/05 01:56:30;;;;;;;43.43;25.37;;;;;;;1.48;100.00;96432.97;5008823;28;102607;-67
2023/03/05 01:59:02;;;;;;;39.60;23.77;;;;;;;1.49;100.00;96429.31;5006681;28;105433;-67
2023/03/05 02:01:40;;;;;;;37.70;23.97;;;;;;;1.54;100.00;96434.00;5023806;28;101869;-67
2023/03/05 02:04:09;;;;;;;41.63;24.20;;;;;;;1.47;100.00;96426.09;5008091;28;105199;-67
2023/03/05 02:06:38;;;;;;;39.27;23.87;;;;;;;1.42;100.00;96431.13;5039893;27;105793;-67
2023/03/05 02:09:05;;;;;;;43.23;25.03;;;;;;;1.30;100.00;96424.78;5007656;28;102244;-67
2023/03/05 02:11:33;;;;;;;40.00;24.30;;;;;;;1.44;100.00;96425.69;5011247;28;102520;-67
2023/03/05 02:14:02;;;;;;;41.27;24.83;;;;;;;1.40;100.00;96421.81;5006946;28;101906;-67
2023/03/05 02:16:35;;;;;;;35.87;22.63;;;;;;;1.44;100.00;96415.22;5008359;28;106371;-67
2023/03/05 02:19:07;;;;;;;40.07;24.40;;;;;;;1.45;100.00;96414.19;5006374;28;105786;-68
2023/03/05 02:21:42;;;;;;;39.37;24.33;;;;;;;1.29;100.00;96414.50;5007464;28;101882;-67
2023/03/05 02:24:13;;;;;;;41.23;24.67;;;;;;;1.48;100.00;96405.97;5007598;28;105468;-68
2023/03/05 02:26:41;;;;;;;45.53;25.17;;;;;;;1.51;100.00;96403.75;5007935;28;101798;-67
2023/03/05 02:29:13;;;;;;;43.50;24.83;;;;;;;1.52;100.00;96397.50;5007088;28;101910;-67
2023/03/05 02:31:41;;;;;;;39.60;24.43;;;;;;;1.45;100.00;96394.06;5006885;28;105282;-67
2023/03/05 02:34:09;;;;;;;43.23;25.33;;;;;;;1.52;100.00;96397.50;5045973;27;105810;-67
2023/03/05 02:36:40;;;;;;;40.53;25.60;;;;;;;1.58;100.00;96390.69;5013036;28;105432;-67
2023/03/05 02:39:09;;;;;;;41.00;24.70;;;;;;;1.63;100.00;96390.91;5011184;28;102871;-67
2023/03/05 02:41:36;;;;;;;41.47;23.93;;;;;;;1.62;100.00;96387.50;5011270;28;102062;-67
2023/03/05 02:44:05;;;;;;;37.90;22.93;;;;;;;1.64;100.00;96387.31;5009494;28;104035;-67
2023/03/05 02:46:32;;;;;;;38.87;24.73;;;;;;;1.59;100.00;96381.84;5009579;28;105716;-67
2023/03/05 02:49:00;;;;;;;43.10;24.73;;;;;;;1.57;100.00;96378.59;5011319;28;101792;-67
2023/03/05 02:51:28;;;;;;;44.10;24.87;;;;;;;1.56;100.00;96377.78;5010709;28;105157;-67
2023/03/05 02:53:59;;;;;;;38.17;23.53;;;;;;;1.63;100.00;96376.00;5013856;28;105523;-67
2023/03/05 02:56:28;;;;;;;39.13;24.37;;;;;;;1.71;100.00;96380.25;5010263;28;105534;-67
2023/03/05 02:58:55;;;;;;;40.23;22.73;;;;;;;1.81;100.00;96373.63;5009046;28;105352;-67
2023/03/05 03:01:23;;;;;;;39.53;24.13;;;;;;;1.78;100.00;96376.66;5043723;27;101822;-67
2023/03/05 03:03:50;;;;;;;41.50;24.93;;;;;;;1.86;100.00;96365.19;5010355;28;105351;-67
2023/03/05 03:06:18;;;;;;;42.87;24.33;;;;;;;1.87;100.00;96372.06;5008922;28;105456;-67
2023/03/05 03:08:45;;;;;;;39.40;23.10;;;;;;;1.89;100.00;96368.22;5009672;28;102009;-67
2023/03/05 03:11:14;;;;;;;42.43;24.50;;;;;;;1.81;100.00;96365.78;5010622;28;102976;-67
2023/03/05 03:13:41;;;;;;;40.03;23.60;;;;;;;1.68;100.00;96370.97;5008970;28;106065;-67
2023/03/05 03:16:12;;;;;;;40.90;24.83;;;;;;;1.59;100.00;96369.53;5012906;28;101849;-67
2023/03/05 03:18:40;;;;;;;41.37;24.13;;;;;;;1.59;100.00;96363.50;5008962;28;105421;-67
2023/03/05 03:21:07;;;;;;;37.70;24.10;;;;;;;1.71;100.00;96359.28;5010594;28;101977;-66
2023/03/05 03:23:35;;;;;;;43.23;25.23;;;;;;;1.72;100.00;96351.25;5012401;28;104198;-67
2023/03/05 03:26:03;;;;;;;46.10;25.37;;;;;;;1.79;100.00;96361.72;5010913;28;105954;-67
2023/03/05 03:28:32;;;;;;;39.53;24.50;;;;;;;1.81;100.00;96350.03;5011052;28;101954;-67
2023/03/05 03:30:59;;;;;;;43.43;25.03;;;;;;;1.80;100.00;96350.25;5011141;28;102814;-66
2023/03/05 03:33:26;;;;;;;41.37;25.00;;;;;;;1.67;100.00;96358.88;5008675;28;105391;-67
2023/03/05 03:35:54;;;;;;;40.17;24.63;;;;;;;1.73;100.00;96352.03;5042707;27;101865;-66
2023/03/05 03:38:21;;;;;;;41.93;24.83;;;;;;;1.71;100.00;96339.13;5014618;28;105720;-67
2023/03/05 03:40:49;;;;;;;40.30;24.13;;;;;;;1.70;100.00;96344.59;5010722;28;101838;-66
2023/03/05 03:43:16;;;;;;;36.37;23.30;;;;;;;1.77;100.00;96340.97;5009085;28;105410;-66
2023/03/05 03:45:46;;;;;;;40.40;24.20;;;;;;;1.80;100.00;96331.91;5009086;28;105535;-66
2023/03/05 03:48:17;;;;;;;41.40;24.30;;;;;;;1.83;100.00;96334.94;5013207;28;102091;-66
2023/03/05 03:50:45;;;;;;;41.53;23.80;;;;;;;1.85;100.00;96329.47;5009690;28;105795;-66
2023/03/05 03:53:13;;;;;;;43.50;24.93;;;;;;;1.80;100.00;96332.69;5009983;28;105927;-66
2023/03/05 03:55:43;;;;;;;39.53;24.37;;;;;;;1.84;100.00;96335.75;5010168;28;102088;-66
2023/03/05 03:58:11;;;;;;;41.40;24.50;;;;;;;1.84;100.00;96327.88;5010780;28;104250;-66
2023/03/05 04:00:39;;;;;;;40.37;24.67;;;;;;;1.90;100.00;96319.22;5028568;28;105499;-66
2023/03/05 04:03:09;;;;;;;40.77;24.13;;;;;;;1.92;100.00;96319.84;5010849;28;105453;-66
2023/03/05 04:05:37;;;;;;;40.63;24.67;;;;;;;1.83;100.00;96321.00;5008960;28;105501;-67
2023/03/05 04:08:10;;;;;;;38.63;24.23;;;;;;;1.78;100.00;96328.66;5012455;28;101901;-66
2023/03/05 04:10:38;;;;;;;40.90;23.57;;;;;;;1.83;100.00;96318.41;5009034;28;105088;-67
2023/03/05 04:13:07;;;;;;;39.53;24.00;;;;;;;1.91;100.00;96326.09;5007663;28;105791;-66
2023/03/05 04:15:34;;;;;;;41.33;24.83;;;;;;;1.87;100.00;96315.16;5008591;28;102153;-66
2023/03/05 04:18:03;;;;;;;38.90;24.67;;;;;;;1.72;100.00;96316.34;5009093;28;105220;-66
2023/03/05 04:20:32;;;;;;;39.13;24.17;;;;;;;1.53;100.00;96306.63;5010541;28;105481;-66
2023/03/05 04:22:59;;;;;;;40.90;25.10;;;;;;;1.52;100.00;96315.47;5011803;28;101979;-66
2023/03/05 04:25:31;;;;;;;40.97;24.00;;;;;;;1.49;100.00;96308.00;5008914;28;105364;-66
2023/03/05 04:27:59;;;;;;;43.37;24.43;;;;;;;1.57;100.00;96306.03;5044878;27;101999;-66
2023/03/05 04:30:27;;;;;;;42.73;24.77;;;;;;;1.53;100.00;96304.00;5008505;28;105466;-66
2023/03/05 04:32:59;;;;;;;41.73;24.33;;;;;;;1.64;100.00;96306.06;5043161;27;104421;-66
2023/03/05 04:35:27;;;;;;;41.50;25.43;;;;;;;1.65;100.00;96294.56;5011724;28;101786;-66
2023/03/05 04:38:01;;;;;;;40.30;23.97;;;;;;;1.56;100.00;96299.19;5010340;28;102740;-66
2023/03/05 04:40:29;;;;;;;43.70;25.27;;;;;;;1.60;100.00;96297.75;5010831;28;105531;-66
2023/03/05 04:43:00;;;;;;;43.20;24.97;;;;;;;1.47;100.00;96297.72;5008576;28;101903;-66
2023/03/05 04:45:27;;;;;;;39.63;24.57;;;;;;;1.52;100.00;96292.69;5012314;28;105295;-66
2023/03/05 04:47:54;;;;;;;40.93;24.87;;;;;;;1.46;100.00;96293.50;5011371;28;101967;-66
2023/03/05 04:50:22;;;;;;;39.13;23.40;;;;;;;1.46;100.00;96293.50;5010351;28;105747;-66
2023/03/05 04:52:49;;;;;;;37.87;23.80;;;;;;;1.56;100.00;96298.34;5010347;28;105570;-66
2023/03/05 04:55:20;;;;;;;43.87;24.67;;;;;;;1.70;100.00;96279.06;5011048;28;102155;-66
2023/03/05 04:57:47;;;;;;;46.30;24.73;;;;;;;1.80;100.00;96277.66;5011622;28;105578;-66
2023/03/05 05:00:16;;;;;;;39.97;24.57;;;;;;;1.78;100.00;96273.63;5010326;28;105941;-66
2023/03/05 05:02:44;;;;;;;43.27;25.23;;;;;;;1.75;100.00;96277.44;5041481;27;101970;-66
2023/03/05 05:05:14;;;;;;;35.90;24.33;;;;;;;1.75;100.00;96272.19;5010754;28;105591;-66
2023/03/05 05:07:42;;;;;;;41.97;25.40;;;;;;;1.79;100.00;96267.34;5007735;28;101920;-66
2023/03/05 05:10:11;;;;;;;44.07;24.83;;;;;;;1.81;100.00;96270.59;5011352;28;105546;-66
2023/03/05 05:12:39;;;;;;;44.40;25.80;;;;;;;1.74;100.00;96264.53;5007168;28;105415;-66
2023/03/05 05:15:08;;;;;;;41.53;25.70;;;;;;;1.69;100.00;96261.72;5043544;27;102035;-66
2023/03/05 05:17:36;;;;;;;40.43;24.63;;;;;;;1.63;100.00;96272.97;5010273;28;105430;-66
2023/03/05 05:20:05;;;;;;;41.30;24.17;;;;;;;1.56;100.00;96266.91;5044782;27;105762;-66
2023/03/05 05:22:32;;;;;;;40.17;23.33;;;;;;;1.67;100.00;96264.53;5010236;28;102154;-66
2023/03/05 05:25:00;;;;;;;39.20;24.20;;;;;;;1.63;100.00;96272.97;5009451;28;105764;-66
2023/03/05 05:27:29;;;;;;;41.53;24.30;;;;;;;1.55;100.00;96271.34;5013217;28;105132;-66
2023/03/05 05:30:01;;;;;;;41.13;24.07;;;;;;;1.57;100.00;96279.81;5011246;28;105969;-66
2023/03/05 05:32:29;;;;;;;43.07;25.30;;;;;;;1.59;100.00;96267.31;5009807;28;105699;-66
2023/03/05 05:34:59;;;;;;;40.17;24.40;;;;;;;1.63;100.00;96272.97;5010126;28;101856;-66
2023/03/05 05:37:27;;;;;;;40.70;25.23;;;;;;;1.60;100.00;96276.00;5010328;28;105482;-66
2023/03/05 05:39:54;;;;;;;45.60;26.27;;;;;;;1.58;100.00;96267.53;5008745;28;104706;-66
2023/03/05 05:42:24;;;;;;;41.00;24.03;;;;;;;1.60;100.00;96273.38;5008234;28;102091;-66
2023/03/05 05:44:51;;;;;;;39.63;24.67;;;;;;;1.58;100.00;96270.94;5043436;27;105694;-66
2023/03/05 05:47:20;;;;;;;46.07;25.80;;;;;;;1.60;100.00;96278.63;5043066;27;105789;-66
2023/03/05 05:49:48;;;;;;;44.93;25.53;;;;;;;1.58;100.00;96278.03;5012203;28;102061;-66
2023/03/05 05:52:17;;;;;;;40.83;24.97;;;;;;;1.60;100.00;96283.88;5040508;27;105745;-66
2023/03/05 05:54:44;;;;;;;44.43;26.07;;;;;;;1.66;100.00;96288.31;5006890;28;101879;-66
2023/03/05 05:57:12;;;;;;;44.00;25.67;;;;;;;1.57;100.00;96284.25;5007149;28;105569;-66
2023/03/05 05:59:40;;;;;;;42.40;24.40;;;;;;;1.50;100.00;96288.66;5006840;28;106002;-66
2023/03/05 06:02:09;;;;;;;44.53;26.37;;;;;;;1.43;100.00;96287.84;5006521;28;101887;-66
2023/03/05 06:04:39;;;;;;;45.23;25.37;;;;;;;1.39;100.00;96290.06;5007025;28;105394;-67
2023/03/05 06:07:06;;;;;;;42.73;24.63;;;;;;;1.47;100.00;96289.84;5007887;28;103211;-67
2023/03/05 06:09:35;;;;;;;47.70;26.00;;;;;;;1.54;100.00;96282.03;5010147;28;101895;-66
2023/03/05 06:12:04;;;;;;;47.00;25.33;;;;;;;1.54;100.00;96288.06;5013702;28;105628;-66
2023/03/05 06:14:32;;;;;;;45.97;26.27;;;;;;;1.34;100.00;96283.75;5043926;27;101893;-66
2023/03/05 06:16:59;;;;;;;44.77;26.03;;;;;;;1.41;100.00;96282.78;5012055;28;102506;-66
2023/03/05 06:19:26;;;;;;;42.33;25.73;;;;;;;1.32;100.00;96286.56;5010513;28;105645;-66
2023/03/05 06:21:55;;;;;;;43.47;24.97;;;;;;;1.29;100.00;96292.22;5011108;28;101917;-67
2023/03/05 06:24:23;;;;;;;42.27;25.00;;;;;;;1.28;100.00;96285.38;5011290;28;102311;-66
2023/03/05 06:26:50;;;;;;;49.10;25.70;;;;;;;1.38;100.00;96285.78;5009851;28;105419;-67
2023/03/05 06:29:18;;;;;;;45.63;25.80;;;;;;;1.41;100.00;96284.59;5011116;28;101919;-66
2023/03/05 06:31:45;;;;;;;46.40;25.47;;;;;;;1.47;100.00;96284.63;5044801;27;105392;-66
2023/03/05 06:34:13;;;;;;;45.33;26.67;;;;;;;1.29;100.00;96288.78;5013884;28;105348;-66
2023/03/05 06:36:42;;;;;;;43.90;25.77;;;;;;;1.27;100.00;96285.56;5010963;28;105213;-66
2023/03/05 06:39:11;;;;;;;47.70;27.80;;;;;;;1.33;100.00;96287.41;5010511;28;105667;-66
2023/03/05 06:41:39;;;;;;;49.43;27.10;;;;;;;1.34;100.00;96281.97;5010699;28;102282;-66
2023/03/05 06:44:06;;;;;;;50.23;26.37;;;;;;;1.37;100.00;96288.63;5010060;28;104884;-66
2023/03/05 06:46:36;;;;;;;42.87;25.33;;;;;;;1.42;100.00;96286.22;5044360;27;105742;-66
2023/03/05 06:49:04;;;;;;;50.57;26.40;;;;;;;1.48;100.00;96286.22;5010860;28;101911;-66
2023/03/05 06:51:34;;;;;;;45.57;25.80;;;;;;;1.48;100.00;96286.22;5010430;28;104830;-66
2023/03/05 06:54:03;;;;;;;46.97;25.40;;;;;;;1.46;100.00;96279.56;5009361;28;104355;-66
2023/03/05 06:56:32;;;;;;;46.67;26.50;;;;;;;1.55;100.00;96281.84;5013619;28;101904;-66
2023/03/05 06:59:14;;;;;;;47.73;27.43;;;;;;;1.59;100.00;96284.88;5009684;28;106034;-66
2023/03/05 07:01:41;;;;;;;43.87;27.07;;;;;;;1.55;100.00;96281.84;4949088;28;102436;-64
2023/03/05 07:04:08;;;;;;;46.57;25.27;;;;;;;1.57;100.00;96284.25;4933472;28;105240;-64
2023/03/05 07:06:38;;;;;;;46.43;27.23;;;;;;;1.57;100.00;96279.00;4932594;28;105563;-64
2023/03/05 07:09:06;;;;;;;44.40;26.37;;;;;;;1.56;100.00;96286.06;4933075;28;101927;-64
2023/03/05 07:11:36;;;;;;;43.73;25.67;;;;;;;1.51;100.00;96287.66;4933406;28;105401;-64
2023/03/05 07:14:03;;;;;;;42.70;25.87;;;;;;;1.74;100.00;96281.06;4932362;28;105735;-64
2023/03/05 07:16:33;;;;;;;46.37;26.37;;;;;;;1.85;100.00;96279.66;4935973;28;101894;-64
2023/03/05 07:19:03;;;;;;;46.53;27.07;;;;;;;1.95;100.00;96274.84;4930996;28;105269;-64
2023/03/05 07:21:33;;;;;;;42.97;24.93;;;;;;;2.03;100.00;96277.28;4932717;28;101960;-64
2023/03/05 07:24:02;;;;;;;41.83;25.50;;;;;;;1.99;100.00;96276.91;4949305;28;102260;-64
2023/03/05 07:26:29;;;;;;;44.13;26.37;;;;;;;2.04;100.00;96274.47;4932088;28;105202;-64
2023/03/05 07:28:58;;;;;;;44.40;25.33;;;;;;;2.07;100.00;96275.91;4949373;28;102176;-64
2023/03/05 07:31:29;;;;;;;44.40;26.03;;;;;;;2.08;100.00;96270.44;4932620;28;105513;-64
2023/03/05 07:33:58;;;;;;;50.60;28.43;;;;;;;2.10;100.00;96276.31;4932805;28;105710;-64
2023/03/05 07:36:25;;;;;;;48.40;26.83;;;;;;;2.10;100.00;96265.00;4932920;28;102053;-64
2023/03/05 07:38:52;;;;;;;45.03;25.33;;;;;;;2.11;100.00;96262.19;4982119;28;102296;-64
2023/03/05 07:41:20;;;;;;;42.33;25.13;;;;;;;2.26;100.00;96275.09;5043459;27;101916;-64
2023/03/05 07:43:49;;;;;;;41.67;25.37;;;;;;;2.29;100.00;96274.69;5009692;28;103678;-64
2023/03/05 07:46:19;;;;;;;42.87;25.60;;;;;;;2.11;100.00;96261.34;5010600;28;103159;-64
2023/03/05 07:48:47;;;;;;;42.73;26.83;;;;;;;2.23;100.00;96270.22;5011552;28;101677;-64
2023/03/05 07:51:15;;;;;;;42.87;25.70;;;;;;;2.31;100.00;96270.03;5009907;28;104285;-64
2023/03/05 07:53:44;;;;;;;47.23;25.50;;;;;;;2.39;100.00;96270.66;5010202;28;103003;-64
2023/03/05 07:56:12;;;;;;;46.53;26.07;;;;;;;2.36;100.00;96262.38;5010674;28;101865;-64
2023/03/05 07:58:39;;;;;;;48.13;25.03;;;;;;;2.33;100.00;96268.03;5011002;28;102299;-64
2023/03/05 08:01:13;;;;;;;42.57;24.70;;;;;;;2.20;100.00;96257.53;5012056;28;105796;-64
2023/03/05 08:03:42;;;;;;;44.20;25.20;;;;;;;2.40;100.00;96267.00;5011531;28;102720;-64
2023/03/05 08:06:10;;;;;;;46.27;24.23;;;;;;;2.46;100.00;96271.44;5010167;28;102392;-64
2023/03/05 08:08:38;;;;;;;43.23;24.17;;;;;;;2.42;100.00;96265.00;5010716;28;102260;-64
2023/03/05 08:11:07;;;;;;;46.47;26.10;;;;;;;2.44;100.00;96259.53;5010202;28;102388;-64
2023/03/05 08:13:34;;;;;;;43.60;25.77;;;;;;;2.33;100.00;96255.72;5009843;28;102812;-64
2023/03/05 08:16:05;;;;;;;44.27;25.33;;;;;;;2.58;100.00;96253.28;5010301;28;101793;-64
2023/03/05 08:18:32;;;;;;;42.90;23.33;;;;;;;2.58;100.00;96253.28;5010354;28;102351;-64
2023/03/05 08:21:00;;;;;;;45.60;24.73;;;;;;;2.62;100.00;96247.41;4991479;28;106041;-64
2023/03/05 08:23:27;;;;;;;40.63;23.67;;;;;;;2.52;100.00;96248.84;5011651;28;101879;-64
2023/03/05 08:25:54;;;;;;;44.10;25.17;;;;;;;2.59;100.00;96249.63;5008338;28;105343;-64
2023/03/05 08:28:21;;;;;;;41.67;23.40;;;;;;;2.70;100.00;96241.13;5008563;28;101907;-64
2023/03/05 08:30:49;;;;;;;41.10;23.83;;;;;;;2.79;100.00;96238.06;5009900;28;102762;-64
2023/03/05 08:33:17;;;;;;;43.27;24.97;;;;;;;2.85;100.00;96244.34;5008209;28;105117;-64
2023/03/05 08:35:44;;;;;;;44.23;23.33;;;;;;;2.93;100.00;96241.47;5008579;28;101833;-64
2023/03/05 08:38:12;;;;;;;44.17;23.17;;;;;;;2.68;100.00;96232.66;5010016;28;102961;-64
2023/03/05 08:40:39;;;;;;;42.73;24.03;;;;;;;2.96;100.00;96238.44;5007863;28;105044;-64
2023/03/05 08:43:06;;;;;;;37.07;21.97;;;;;;;2.80;100.00;96241.53;5008011;28;102208;-63
2023/03/05 08:45:33;;;;;;;41.00;23.27;;;;;;;2.86;100.00;96232.81;5013102;28;102322;-64
2023/03/05 08:47:59;;;;;;;42.30;24.17;;;;;;;2.98;100.00;96239.03;5008268;28;102066;-63
2023/03/05 08:50:26;;;;;;;41.60;24.07;;;;;;;2.94;100.00;96238.66;5008164;28;105250;-63
2023/03/05 08:52:55;;;;;;;36.40;21.23;;;;;;;3.04;100.00;96232.97;5007706;28;105303;-64
2023/03/05 08:55:24;;;;;;;39.30;21.13;;;;;;;3.03;100.00;96232.16;5041578;27;101786;-64
2023/03/05 08:57:50;;;;;;;37.20;22.13;;;;;;;3.06;100.00;96229.09;5041729;27;105119;-63
2023/03/05 09:00:18;;;;;;;37.60;23.00;;;;;;;3.19;100.00;96223.00;5007616;28;105339;-64
2023/03/05 09:02:45;;;;;;;34.13;21.73;;;;;;;3.24;100.00;96233.69;5008023;28;102087;-64
2023/03/05 09:05:12;;;;;;;40.30;23.80;;;;;;;3.33;100.00;96228.00;5041553;27;105644;-63
2023/03/05 09:07:39;;;;;;;34.37;20.20;;;;;;;3.38;100.00;96220.28;5010702;28;101949;-64
2023/03/05 09:10:10;;;;;;;34.30;21.07;;;;;;;3.23;100.00;96219.75;5007881;28;104042;-64
2023/03/05 09:12:38;;;;;;;31.47;20.30;;;;;;;3.44;100.00;96214.19;5007405;28;105615;-63
2023/03/05 09:15:07;;;;;;;38.33;22.80;;;;;;;3.65;100.00;96213.09;5007647;28;101929;-64
2023/03/05 09:17:33;;;;;;;33.63;20.60;;;;;;;3.80;100.00;96211.75;5007951;28;105652;-64
2023/03/05 09:20:01;;;;;;;29.53;19.30;;;;;;;3.93;100.00;96210.88;5041157;27;103954;-64
2023/03/05 09:22:29;;;;;;;34.37;21.27;;;;;;;4.09;100.00;96208.50;5041105;27;101862;-64
2023/03/05 09:24:56;;;;;;;30.30;20.47;;;;;;;4.08;100.00;96203.44;5007768;28;105547;-64
2023/03/05 09:27:23;;;;;;;33.60;21.10;;;;;;;4.08;100.00;96201.63;5012192;28;102866;-64
2023/03/05 09:29:51;;;;;;;37.37;21.77;;;;;;;4.15;100.00;96193.69;5009222;28;102352;-64
2023/03/05 09:32:19;;;;;;;36.60;22.63;;;;;;;4.00;100.00;96198.47;5007939;28;102476;-64
2023/03/05 09:34:46;;;;;;;33.90;21.07;;;;;;;4.03;100.00;96193.56;5024145;28;101976;-63
2023/03/05 09:37:13;;;;;;;29.33;19.30;;;;;;;3.99;100.00;96194.22;5028782;27;103234;-64
2023/03/05 09:39:40;;;;;;;30.70;18.60;;;;;;;4.23;100.00;96188.16;5026537;28;105621;-64
2023/03/05 09:42:28;;;;;;;31.33;18.47;;;;;;;3.83;100.00;96186.84;5028781;27;101855;-64
2023/03/05 09:45:08;;;;;;;31.67;18.63;;;;;;;3.97;100.00;96189.19;5030477;28;105218;-64
2023/03/05 09:47:48;;;;;;;30.03;18.67;;;;;;;3.95;100.00;96185.16;5030115;28;105800;-63
2023/03/05 09:50:31;;;;;;;30.30;19.07;;;;;;;4.16;100.00;96187.41;5035664;27;102304;-63
2023/03/05 09:53:04;;;;;;;31.37;19.10;;;;;;;3.91;100.00;96184.78;5029966;28;105654;-64
2023/03/05 09:55:39;;;;;;;31.13;19.07;;;;;;;3.81;100.00;96186.25;5030206;28;101866;-64
2023/03/05 09:58:12;;;;;;;33.60;19.83;;;;;;;3.87;100.00;96188.06;5030492;28;105274;-64
2023/03/05 10:00:44;;;;;;;28.63;18.30;;;;;;;4.05;100.00;96185.47;5030010;28;105199;-64
2023/03/05 10:03:18;;;;;;;32.07;18.63;;;;;;;4.16;100.00;96175.03;5030329;28;101868;-64
2023/03/05 10:05:53;;;;;;;29.70;18.63;;;;;;;3.87;100.00;96177.53;5030627;28;104821;-64
2023/03/05 10:08:27;;;;;;;32.90;19.20;;;;;;;4.04;100.00;96183.88;5029640;28;105553;-64
2023/03/05 10:10:55;;;;;;;31.17;18.77;;;;;;;4.23;100.00;96175.00;5030133;28;102124;-64
2023/03/05 10:13:27;;;;;;;29.53;17.97;;;;;;;4.23;100.00;96173.19;5033206;28;105317;-64
2023/03/05 10:16:05;;;;;;;28.17;17.73;;;;;;;4.38;100.00;96170.19;5029953;28;102451;-64
2023/03/05 10:18:37;;;;;;;29.97;18.20;;;;;;;4.45;100.00;96165.66;5030083;28;105432;-64
2023/03/05 10:21:08;;;;;;;28.40;17.50;;;;;;;4.57;100.00;96166.56;5013244;28;105728;-64
2023/03/05 10:23:57;;;;;;;24.73;16.70;;;;;;;4.86;100.00;96163.22;5029859;28;101796;-64
2023/03/05 10:26:42;;;;;;;26.47;17.10;;;;;;;5.12;100.00;96153.16;5030072;28;105307;-64
2023/03/05 10:29:26;;;;;;;26.03;17.20;;;;;;;5.24;100.00;96156.66;5028392;28;105383;-64
2023/03/05 10:32:08;;;;;;;27.20;16.90;;;;;;;5.33;100.00;96154.50;5029512;28;101846;-64
2023/03/05 10:35:05;;;;;;;27.57;17.80;;;;;;;5.22;100.00;96147.34;5030284;28;105339;-64
2023/03/05 10:37:52;;;;;;;28.40;17.77;;;;;;;5.26;100.00;96137.97;5032832;28;105519;-63
2023/03/05 10:40:28;;;;;;;24.73;16.60;;;;;;;5.47;100.00;96129.56;5029911;28;105900;-62
2023/03/05 10:43:04;;;;;;;29.57;17.43;;;;;;;5.73;100.00;96131.84;5029389;28;105631;-66
2023/03/05 10:45:36;;;;;;;26.57;16.30;;;;;;;5.75;100.00;96135.84;5047135;27;101971;-69
2023/03/05 10:48:16;;;;;;;25.20;16.53;;;;;;;5.78;100.00;96131.97;5030086;28;105274;-68
2023/03/05 10:50:49;;;;;;;24.90;16.00;;;;;;;5.79;100.00;96123.00;5029641;28;105503;-65
2023/03/05 10:53:23;;;;;;;27.60;16.37;;;;;;;5.84;100.00;96126.59;5031135;27;101794;-74
2023/03/05 10:55:55;;;;;;;24.73;16.17;;;;;;;5.72;100.00;96127.59;5031566;27;102779;-67
2023/03/05 10:58:24;;;;;;;23.90;16.23;;;;;;;5.78;100.00;96109.00;5029635;28;103172;-64
2023/03/05 11:01:02;;;;;;;20.67;14.07;;;;;;;5.95;100.00;96106.53;5034493;27;101829;-63
2023/03/05 11:03:48;;;;;;;22.57;15.53;;;;;;;6.05;100.00;96104.16;5029282;28;105551;-64
2023/03/05 11:06:17;;;;;;;23.10;14.90;;;;;;;5.64;100.00;96101.53;5028006;28;102021;-61
2023/03/05 11:08:44;;;;;;;19.73;13.33;;;;;;;5.95;100.00;96096.78;5029790;28;105885;-61
2023/03/05 11:11:14;;;;;;;18.73;12.40;;;;;;;5.92;100.00;96094.59;5029261;28;104139;-61
2023/03/05 11:13:52;;;;;;;21.73;15.13;;;;;;;5.75;100.00;96090.19;5031193;27;101785;-61
2023/03/05 11:16:21;;;;;;;23.93;14.10;;;;;;;5.43;100.00;96091.50;5029777;28;104935;-61
2023/03/05 11:18:49;;;;;;;19.27;12.97;;;;;;;5.55;100.00;96089.69;5028994;28;105933;-61
2023/03/05 11:21:26;;;;;;;22.00;14.37;;;;;;;5.50;100.00;96084.28;5034671;28;101868;-61